Time;durP1;ratioP1;P1;durP2;ratioP2;P2;SDS_P1;SDS_P2;PMS_P1;PMS_P2;Temp;Humidity;BMP_temperature;BMP_pressure;BME280_temperature;BME280_humidity;BME280_pressure;Samples;Min_cycle;Max_cycle;Signal;HPM_P1;HPM_P2
2023/12/21 00:02:06;;;;;;;3.37;3.17;;;;;;;0.61;nan;-23832.44;4985088;28;20246;-65
2023/12/21 00:04:32;;;;;;;5.70;2.47;;;;;;;0.58;nan;-23831.56;4985611;28;20192;-63
2023/12/21 00:06:58;;;;;;;5.63;4.37;;;;;;;0.52;nan;-23829.84;4986408;28;20238;-65
2023/12/21 00:09:23;;;;;;;3.30;3.00;;;;;;;0.76;nan;-23836.72;4985355;28;20189;-65
2023/12/21 00:11:48;;;;;;;3.50;3.07;;;;;;;0.49;nan;-23828.84;4988060;28;20187;-66
2023/12/21 00:14:14;;;;;;;2.37;2.27;;;;;;;0.72;nan;-23835.44;5007780;28;20229;-65
2023/12/21 00:16:39;;;;;;;7.70;4.60;;;;;;;0.60;nan;-23832.00;4992837;28;20372;-64
2023/12/21 00:19:05;;;;;;;3.00;2.73;;;;;;;0.67;nan;-23834.16;4992528;28;20188;-65
2023/12/21 00:21:30;;;;;;;2.37;2.17;;;;;;;0.65;nan;-23833.56;4992823;28;20219;-64
2023/12/21 00:23:56;;;;;;;3.13;2.83;;;;;;;0.62;nan;-23832.72;4992139;28;20231;-64
2023/12/21 00:26:21;;;;;;;3.80;2.60;;;;;;;0.61;nan;-23832.44;4992631;28;20208;-64
2023/12/21 00:28:47;;;;;;;2.80;2.60;;;;;;;0.36;nan;-23825.28;4992484;28;20238;-64
2023/12/21 00:31:12;;;;;;;3.07;2.83;;;;;;;0.54;nan;-23830.28;4992135;28;20221;-64
2023/12/21 00:33:38;;;;;;;3.93;3.57;;;;;;;0.47;nan;-23828.28;4992505;28;20218;-65
2023/12/21 00:36:04;;;;;;;4.77;3.23;;;;;;;0.54;nan;-23830.44;4992427;28;20192;-65
2023/12/21 00:38:29;;;;;;;5.77;3.63;;;;;;;0.56;nan;-23830.84;4991911;28;20180;-64
2023/12/21 00:40:56;;;;;;;2.10;2.00;;;;;;;0.26;nan;-23822.56;4992255;28;20176;-64
2023/12/21 00:43:21;;;;;;;2.13;2.03;;;;;;;0.23;nan;-23821.69;4992312;28;20184;-67
2023/12/21 00:45:47;;;;;;;3.80;2.53;;;;;;;0.43;nan;-23827.28;4992116;28;20204;-65
2023/12/21 00:48:14;;;;;;;3.57;3.27;;;;;;;0.51;nan;-23829.44;4992217;28;20260;-63
2023/12/21 00:50:40;;;;;;;4.57;3.53;;;;;;;0.51;nan;-23829.44;4991976;28;20657;-64
2023/12/21 00:53:06;;;;;;;4.77;4.33;;;;;;;0.43;nan;-23827.28;4991889;28;20180;-66
2023/12/21 00:55:32;;;;;;;3.53;2.27;;;;;;;0.47;nan;-23828.28;4992592;28;20210;-66
2023/12/21 00:57:58;;;;;;;3.60;3.30;;;;;;;0.32;nan;-23824.13;4992132;28;20208;-63
2023/12/21 01:00:23;;;;;;;3.60;2.93;;;;;;;0.23;nan;-23821.56;4991951;28;20176;-65
2023/12/21 01:02:49;;;;;;;3.20;2.73;;;;;;;0.46;nan;-23828.13;4991804;28;20188;-65
2023/12/21 01:05:14;;;;;;;2.70;2.17;;;;;;;0.25;nan;-23822.13;4991593;28;20744;-64
2023/12/21 01:07:40;;;;;;;1.97;1.87;;;;;;;0.58;nan;-23831.44;4991773;28;20226;-65
2023/12/21 01:10:06;;;;;;;2.47;2.27;;;;;;;0.57;nan;-23831.13;4990725;28;20258;-65
2023/12/21 01:12:32;;;;;;;3.47;2.77;;;;;;;0.47;nan;-23828.28;4991560;28;20176;-63
2023/12/21 01:15:01;;;;;;;3.43;3.13;;;;;;;0.45;nan;-23827.84;4991739;28;20199;-63
2023/12/21 01:17:27;;;;;;;2.43;2.30;;;;;;;0.72;nan;-23835.56;4984992;28;20227;-64
2023/12/21 01:19:52;;;;;;;1.63;1.53;;;;;;;0.66;nan;-23833.84;4991435;28;20204;-64
2023/12/21 01:22:19;;;;;;;1.90;1.80;;;;;;;0.47;nan;-23828.41;4990976;28;20176;-64
2023/12/21 01:24:44;;;;;;;2.67;2.47;;;;;;;0.63;nan;-23832.84;4991314;28;20196;-65
2023/12/21 01:27:10;;;;;;;3.80;1.83;;;;;;;0.47;nan;-23828.41;4991275;28;20207;-64
2023/12/21 01:29:35;;;;;;;3.20;2.57;;;;;;;0.82;nan;-23838.28;4991692;28;20192;-64
2023/12/21 01:32:00;;;;;;;2.07;1.97;;;;;;;0.79;nan;-23837.56;4991564;28;20235;-63
2023/12/21 01:34:26;;;;;;;2.10;1.93;;;;;;;1.11;nan;-23846.59;4991458;28;20197;-64
2023/12/21 01:36:52;;;;;;;1.97;1.87;;;;;;;1.33;nan;-23852.88;4990892;28;20212;-64
2023/12/21 01:39:18;;;;;;;2.53;2.33;;;;;;;1.20;nan;-23849.16;4991030;28;20177;-65
2023/12/21 01:41:43;;;;;;;1.83;1.73;;;;;;;1.53;nan;-23858.44;4989462;28;20229;-64
2023/12/21 01:44:09;;;;;;;5.03;2.33;;;;;;;1.64;nan;-23861.47;4989636;28;20177;-64
2023/12/21 01:46:34;;;;;;;2.77;2.13;;;;;;;1.59;nan;-23860.03;4989316;28;20196;-65
2023/12/21 01:49:00;;;;;;;5.90;2.67;;;;;;;1.28;nan;-23851.31;4990278;28;20168;-64
2023/12/21 01:51:27;;;;;;;1.97;1.87;;;;;;;1.53;nan;-23858.31;4990435;28;20256;-66
2023/12/21 01:53:53;;;;;;;2.80;2.60;;;;;;;1.30;nan;-23851.88;4990924;28;20177;-64
2023/12/21 01:56:20;;;;;;;2.80;2.40;;;;;;;1.34;nan;-23853.16;4991528;28;20166;-65
2023/12/21 01:58:48;;;;;;;1.70;1.60;;;;;;;1.28;nan;-23851.31;4991656;28;20173;-63
2023/12/21 02:01:15;;;;;;;4.83;2.47;;;;;;;1.05;nan;-23844.88;4991473;28;20169;-65
2023/12/21 02:03:40;;;;;;;2.70;1.93;;;;;;;1.13;nan;-23847.16;4991280;28;20173;-64
2023/12/21 02:06:08;;;;;;;2.20;2.00;;;;;;;1.32;nan;-23852.59;4991018;28;20230;-64
2023/12/21 02:08:34;;;;;;;2.07;1.97;;;;;;;1.25;nan;-23850.44;4991388;28;20179;-64
2023/12/21 02:11:00;;;;;;;1.63;1.53;;;;;;;1.31;nan;-23852.31;4991589;28;20181;-63
2023/12/21 02:13:25;;;;;;;2.00;1.90;;;;;;;1.35;nan;-23853.31;4991208;28;20208;-64
2023/12/21 02:15:55;;;;;;;1.43;1.37;;;;;;;1.48;nan;-23857.03;4991439;28;20216;-64
2023/12/21 02:18:21;;;;;;;2.43;2.23;;;;;;;1.36;nan;-23853.44;4991101;28;20218;-64
2023/12/21 02:20:49;;;;;;;1.97;1.87;;;;;;;1.55;nan;-23859.03;4994770;28;20189;-64
2023/12/21 02:23:18;;;;;;;4.50;1.97;;;;;;;1.63;nan;-23861.31;4994846;28;20227;-63
2023/12/21 02:25:43;;;;;;;2.63;2.07;;;;;;;1.70;nan;-23863.16;4994769;28;20676;-64
2023/12/21 02:28:09;;;;;;;1.93;1.73;;;;;;;1.55;nan;-23859.03;4994612;28;20239;-64
2023/12/21 02:30:34;;;;;;;1.20;1.20;;;;;;;1.74;nan;-23864.31;4994249;28;20225;-64
2023/12/21 02:33:00;;;;;;;2.67;2.47;;;;;;;1.67;nan;-23862.31;4994339;28;20719;-65
2023/12/21 02:35:25;;;;;;;1.20;1.17;;;;;;;1.90;nan;-23868.75;4994871;28;20172;-66
2023/12/21 02:37:50;;;;;;;2.07;1.97;;;;;;;1.92;nan;-23869.31;4994586;28;20240;-64
2023/12/21 02:40:16;;;;;;;2.00;1.90;;;;;;;1.84;nan;-23867.03;4994589;28;20664;-65
2023/12/21 02:42:41;;;;;;;2.07;1.97;;;;;;;2.10;nan;-23874.47;4994682;28;20169;-64
2023/12/21 02:45:07;;;;;;;1.73;1.63;;;;;;;2.14;nan;-23875.75;4994197;28;20621;-64
2023/12/21 02:47:32;;;;;;;1.80;1.70;;;;;;;2.20;nan;-23877.31;4994381;28;20169;-65
2023/12/21 02:49:58;;;;;;;2.07;1.83;;;;;;;2.18;nan;-23876.88;4994321;28;20188;-64
2023/12/21 02:52:23;;;;;;;1.80;1.70;;;;;;;2.09;nan;-23874.31;4994595;28;20177;-64
2023/12/21 02:54:48;;;;;;;1.93;1.83;;;;;;;1.76;nan;-23864.88;4994351;28;20185;-64
2023/12/21 02:57:14;;;;;;;2.10;2.00;;;;;;;1.80;nan;-23866.03;4994305;28;20636;-63
2023/12/21 02:59:43;;;;;;;2.20;1.63;;;;;;;1.93;nan;-23869.75;4994237;28;20177;-64
2023/12/21 03:02:08;;;;;;;1.33;1.27;;;;;;;1.80;nan;-23865.88;4993794;28;20200;-64
2023/12/21 03:04:34;;;;;;;2.20;2.00;;;;;;;2.11;nan;-23874.88;4993971;28;20216;-64
2023/12/21 03:06:59;;;;;;;3.60;2.13;;;;;;;2.26;nan;-23879.03;4994763;28;20544;-64
2023/12/21 03:09:25;;;;;;;1.87;1.77;;;;;;;2.17;nan;-23876.47;4993927;28;20213;-63
2023/12/21 03:11:50;;;;;;;2.73;2.53;;;;;;;2.12;nan;-23875.16;4993744;28;20703;-64
2023/12/21 03:14:15;;;;;;;1.80;1.70;;;;;;;1.94;nan;-23870.03;4993864;28;20187;-64
2023/12/21 03:16:41;;;;;;;2.20;2.10;;;;;;;2.48;nan;-23885.31;4993797;28;20181;-63
2023/12/21 03:19:06;;;;;;;1.73;1.63;;;;;;;2.51;nan;-23884.19;4993808;28;20188;-65
2023/12/21 03:21:32;;;;;;;1.23;1.23;;;;;;;2.98;nan;-23268.13;4993741;28;20255;-63
2023/12/21 03:23:57;;;;;;;2.37;2.13;;;;;;;3.20;nan;-22644.22;4993629;28;20264;-64
2023/12/21 03:26:22;;;;;;;1.53;1.43;;;;;;;3.49;nan;-21391.25;4993686;28;20210;-64
2023/12/21 03:28:48;;;;;;;1.70;1.60;;;;;;;4.05;nan;-20142.28;4993830;28;20168;-64
2023/12/21 03:31:17;;;;;;;2.00;1.90;;;;;;;4.34;nan;-18569.59;4992473;28;20251;-63
2023/12/21 03:33:42;;;;;;;1.70;1.60;;;;;;;4.32;nan;-18253.28;4993512;28;20200;-66
2023/12/21 03:36:07;;;;;;;1.50;1.40;;;;;;;4.49;nan;-18572.34;4993694;28;20637;-64
2023/12/21 03:38:33;;;;;;;1.73;1.63;;;;;;;4.65;nan;-16362.16;4993511;28;20566;-65
2023/12/21 03:40:58;;;;;;;1.93;1.83;;;;;;;4.61;nan;-15412.53;4993449;28;20165;-65
2023/12/21 03:43:24;;;;;;;2.23;2.10;;;;;;;4.96;nan;-13834.38;4993113;28;20176;-66
2023/12/21 03:45:49;;;;;;;1.60;1.50;;;;;;;4.61;nan;-13513.81;4993234;28;20588;-64
2023/12/21 03:48:15;;;;;;;1.27;1.23;;;;;;;4.82;nan;-14149.41;4993270;28;20176;-63
2023/12/21 03:50:40;;;;;;;1.57;1.47;;;;;;;4.81;nan;-14149.28;4993308;28;20181;-65
2023/12/21 03:53:07;;;;;;;1.70;1.60;;;;;;;4.80;nan;-13199.25;4993312;28;20184;-64
2023/12/21 03:55:33;;;;;;;1.67;1.50;;;;;;;4.56;nan;-12563.47;4992963;28;20177;-65
2023/12/21 03:57:58;;;;;;;1.60;1.50;;;;;;;4.68;nan;-12564.63;4992865;28;20176;-64
2023/12/21 04:00:25;;;;;;;1.83;1.57;;;;;;;4.86;nan;-11932.75;4992968;28;20184;-66
2023/12/21 04:02:50;;;;;;;1.57;1.47;;;;;;;4.77;nan;-12248.75;4992673;28;20231;-63
2023/12/21 04:05:15;;;;;;;1.17;1.17;;;;;;;4.58;nan;-11296.91;4993382;28;20224;-65
2023/12/21 04:07:41;;;;;;;1.20;1.20;;;;;;;4.49;nan;-13195.97;4989880;28;20640;-64
2023/12/21 04:10:07;;;;;;;1.50;1.40;;;;;;;4.59;nan;-12880.38;4989889;28;20209;-63
2023/12/21 04:12:32;;;;;;;1.30;1.30;;;;;;;4.60;nan;-13830.19;4993200;28;20188;-65
2023/12/21 04:14:58;;;;;;;1.70;1.60;;;;;;;4.50;nan;-13829.00;4992593;28;20192;-64
2023/12/21 04:17:23;;;;;;;1.50;1.40;;;;;;;4.49;nan;-15094.50;4992566;28;20673;-65
2023/12/21 04:19:49;;;;;;;1.10;1.10;;;;;;;4.47;nan;-15410.59;4993043;28;20259;-64
2023/12/21 04:22:14;;;;;;;1.63;1.53;;;;;;;4.38;nan;-15093.09;4992714;28;20183;-65
2023/12/21 04:24:41;;;;;;;1.60;1.50;;;;;;;4.36;nan;-15409.00;4992729;28;20612;-64
2023/12/21 04:27:06;;;;;;;1.17;1.17;;;;;;;4.27;nan;-16040.13;4992500;28;20192;-65
2023/12/21 04:29:31;;;;;;;1.30;1.30;;;;;;;4.62;nan;-15412.69;4992583;28;20537;-64
2023/12/21 04:31:57;;;;;;;1.80;1.70;;;;;;;4.58;nan;-15728.53;4993004;28;20227;-66
2023/12/21 04:34:22;;;;;;;1.80;1.70;;;;;;;4.52;nan;-15411.31;4992460;28;20191;-64
2023/12/21 04:36:48;;;;;;;1.63;1.53;;;;;;;4.59;nan;-15095.94;4992561;28;20176;-64
2023/12/21 04:39:13;;;;;;;1.73;1.63;;;;;;;4.69;nan;-13831.25;4985497;28;20187;-64
2023/12/21 04:41:38;;;;;;;1.40;1.40;;;;;;;5.05;nan;-11617.41;4983950;28;20223;-64
2023/12/21 04:44:05;;;;;;;1.50;1.43;;;;;;;5.16;nan;-7811.78;5008689;28;20238;-64
2023/12/21 04:46:31;;;;;;;1.97;1.87;;;;;;;5.39;nan;-7177.09;4984130;28;20219;-64
2023/12/21 04:48:56;;;;;;;3.50;1.93;;;;;;;5.37;nan;-7494.63;4976989;28;20595;-64
2023/12/21 04:51:22;;;;;;;1.83;1.70;;;;;;;5.27;nan;-7177.00;4989659;28;20193;-65
2023/12/21 04:53:47;;;;;;;2.00;1.30;;;;;;;5.42;nan;-8129.75;4982260;28;20268;-64
2023/12/21 04:56:12;;;;;;;2.40;2.07;;;;;;;5.18;nan;-9081.22;4979410;28;20648;-65
2023/12/21 04:58:38;;;;;;;1.30;1.30;;;;;;;5.28;nan;-9716.22;4983460;28;20181;-64
2023/12/21 05:01:07;;;;;;;1.70;1.60;;;;;;;4.92;nan;-9714.41;4978592;28;20260;-65
2023/12/21 05:03:32;;;;;;;3.00;1.70;;;;;;;5.13;nan;-10349.78;4987173;28;20652;-64
2023/12/21 05:05:58;;;;;;;2.53;2.20;;;;;;;5.44;nan;-11303.38;4991530;28;20258;-63
2023/12/21 05:08:23;;;;;;;2.07;1.80;;;;;;;5.18;nan;-12569.44;4983784;28;20204;-64
2023/12/21 05:10:49;;;;;;;1.77;1.53;;;;;;;5.16;nan;-14153.59;4976697;28;20187;-64
2023/12/21 05:13:14;;;;;;;1.40;1.37;;;;;;;5.22;nan;-15104.63;4990377;28;20720;-66
2023/12/21 05:15:39;;;;;;;1.90;1.80;;;;;;;5.29;nan;-15422.31;4981638;28;20224;-63
2023/12/21 05:18:05;;;;;;;1.63;1.53;;;;;;;4.93;nan;-15733.59;4988454;28;20188;-65
2023/12/21 05:20:31;;;;;;;3.27;2.20;;;;;;;5.00;nan;-15734.63;4997790;28;20197;-64
2023/12/21 05:22:56;;;;;;;1.93;1.70;;;;;;;5.18;nan;-16687.16;4992087;28;20628;-65
2023/12/21 05:25:21;;;;;;;2.13;2.03;;;;;;;5.09;nan;-17002.16;4991935;28;20204;-63
2023/12/21 05:27:47;;;;;;;2.00;1.90;;;;;;;5.02;nan;-17633.69;4991662;28;20648;-66
2023/12/21 05:30:12;;;;;;;1.90;1.80;;;;;;;4.80;nan;-18262.34;4991096;28;20244;-65
2023/12/21 05:32:38;;;;;;;2.53;2.33;;;;;;;4.71;nan;-18260.63;4991524;28;20204;-63
2023/12/21 05:35:04;;;;;;;3.33;3.03;;;;;;;4.69;nan;-18576.28;4991452;28;20268;-65
2023/12/21 05:37:29;;;;;;;1.70;1.60;;;;;;;4.69;nan;-18576.28;5006511;28;20180;-64
2023/12/21 05:39:55;;;;;;;2.00;1.90;;;;;;;4.87;nan;-18896.09;4991918;28;20172;-65
2023/12/21 05:42:20;;;;;;;2.30;1.73;;;;;;;4.66;nan;-18891.75;4991234;28;20208;-63
2023/12/21 05:44:46;;;;;;;2.50;2.23;;;;;;;4.89;nan;-19212.56;4991337;28;20184;-66
2023/12/21 05:47:11;;;;;;;3.27;2.13;;;;;;;4.70;nan;-19208.63;4991736;28;20188;-65
2023/12/21 05:49:37;;;;;;;2.43;2.23;;;;;;;4.89;nan;-19212.66;4991539;28;20176;-62
2023/12/21 05:52:02;;;;;;;1.80;1.70;;;;;;;4.92;nan;-19213.06;4991401;28;20210;-64
2023/12/21 05:54:30;;;;;;;2.33;2.10;;;;;;;4.81;nan;-19527.09;4993244;28;20181;-65
2023/12/21 05:56:55;;;;;;;2.60;2.17;;;;;;;4.39;nan;-19518.31;4994798;28;20185;-65
2023/12/21 05:59:20;;;;;;;2.10;1.90;;;;;;;4.81;nan;-19843.16;4994620;28;20661;-65
2023/12/21 06:01:46;;;;;;;2.17;2.03;;;;;;;4.57;nan;-19837.97;4995933;28;20168;-64
2023/12/21 06:04:12;;;;;;;1.27;1.27;;;;;;;4.61;nan;-19838.72;4993710;28;20173;-64
2023/12/21 06:06:37;;;;;;;1.63;1.53;;;;;;;4.87;nan;-19844.34;5010192;28;20211;-64
2023/12/21 06:09:07;;;;;;;4.47;2.57;;;;;;;4.87;nan;-19528.38;4994477;28;20549;-63
2023/12/21 06:11:33;;;;;;;1.73;1.63;;;;;;;4.82;nan;-19527.22;4994705;28;20172;-64
2023/12/21 06:13:58;;;;;;;1.70;1.60;;;;;;;4.88;nan;-19528.59;4994140;28;20181;-65
2023/12/21 06:16:24;;;;;;;1.80;1.70;;;;;;;4.99;nan;-19530.69;4994265;28;20173;-65
2023/12/21 06:18:50;;;;;;;2.43;2.10;;;;;;;4.87;nan;-19528.25;4994417;28;20177;-63
2023/12/21 06:21:16;;;;;;;2.93;2.00;;;;;;;5.02;nan;-19215.25;4994244;28;20180;-63
2023/12/21 06:23:41;;;;;;;2.10;1.87;;;;;;;5.12;nan;-18900.94;4994381;28;20553;-63
2023/12/21 06:26:06;;;;;;;1.77;1.67;;;;;;;4.92;nan;-18580.69;4994110;28;20697;-64
2023/12/21 06:28:32;;;;;;;2.87;2.30;;;;;;;5.15;nan;-18585.19;4994005;28;20204;-64
2023/12/21 06:30:57;;;;;;;2.50;1.77;;;;;;;5.15;nan;-18585.19;4993282;28;20232;-63
2023/12/21 06:33:22;;;;;;;2.30;2.20;;;;;;;5.17;nan;-18585.59;4994126;28;20582;-64
2023/12/21 06:35:48;;;;;;;2.33;2.07;;;;;;;5.01;nan;-18266.28;4993653;28;20161;-65
2023/12/21 06:38:13;;;;;;;1.50;1.40;;;;;;;5.08;nan;-17951.16;4994261;28;20165;-64
2023/12/21 06:40:39;;;;;;;3.03;2.00;;;;;;;5.40;nan;-17640.47;4994248;28;20181;-63
2023/12/21 06:43:05;;;;;;;1.57;1.47;;;;;;;5.36;nan;-17323.25;4993621;28;20184;-63
2023/12/21 06:45:30;;;;;;;1.63;1.53;;;;;;;5.40;nan;-17323.88;4993962;28;20624;-64
2023/12/21 06:47:59;;;;;;;4.27;2.63;;;;;;;5.31;nan;-17322.38;4994243;28;20177;-63
2023/12/21 06:50:25;;;;;;;1.20;1.20;;;;;;;5.31;nan;-17005.81;4993464;28;20744;-64
2023/12/21 06:52:50;;;;;;;2.40;2.17;;;;;;;5.50;nan;-17008.97;4993820;28;20306;-65
2023/12/21 06:55:15;;;;;;;2.63;2.43;;;;;;;5.62;nan;-17011.00;4993801;28;20195;-65
2023/12/21 06:57:41;;;;;;;1.93;1.83;;;;;;;5.51;nan;-17009.22;4993457;28;20710;-64
2023/12/21 07:00:07;;;;;;;2.40;2.07;;;;;;;5.56;nan;-17010.06;4993538;28;20223;-63
2023/12/21 07:02:33;;;;;;;1.80;1.70;;;;;;;5.71;nan;-16695.72;4993224;28;20200;-62
2023/12/21 07:04:59;;;;;;;1.87;1.77;;;;;;;5.53;nan;-16059.34;4993263;28;20204;-65
2023/12/21 07:07:25;;;;;;;1.73;1.63;;;;;;;5.46;nan;-16691.63;4993522;28;20656;-66
2023/12/21 07:09:50;;;;;;;1.53;1.43;;;;;;;5.52;nan;-16375.88;4993588;28;20314;-64
2023/12/21 07:12:17;;;;;;;2.73;2.53;;;;;;;5.61;nan;-15109.88;4993451;28;20682;-64
2023/12/21 07:14:42;;;;;;;1.57;1.47;;;;;;;5.88;nan;-14796.47;4993579;28;20204;-62
2023/12/21 07:17:08;;;;;;;1.73;1.53;;;;;;;5.69;nan;-15111.06;4993380;28;20259;-65
2023/12/21 07:19:33;;;;;;;1.67;1.57;;;;;;;6.08;nan;-14799.19;4993135;28;20239;-63
2023/12/21 07:21:58;;;;;;;1.97;1.87;;;;;;;5.73;nan;-15745.50;4993387;28;20256;-63
2023/12/21 07:24:24;;;;;;;3.00;2.70;;;;;;;5.70;nan;-16378.75;4993192;28;20212;-64
2023/12/21 07:26:49;;;;;;;1.77;1.67;;;;;;;6.08;nan;-16067.72;4993098;28;20200;-64
2023/12/21 07:29:14;;;;;;;1.80;1.70;;;;;;;5.93;nan;-15431.38;4993268;28;20205;-64
2023/12/21 07:31:40;;;;;;;1.90;1.80;;;;;;;6.03;nan;-15432.81;4992955;28;20216;-63
2023/12/21 07:34:06;;;;;;;2.33;2.13;;;;;;;6.10;nan;-15116.59;4993061;28;20172;-64
2023/12/21 07:36:32;;;;;;;2.33;2.00;;;;;;;6.24;nan;-14483.97;4992984;28;20172;-63
2023/12/21 07:38:57;;;;;;;1.93;1.83;;;;;;;6.40;nan;-14168.59;4993125;28;20556;-66
2023/12/21 07:41:22;;;;;;;2.33;1.80;;;;;;;6.36;nan;-13533.19;4992130;28;20184;-64
2023/12/21 07:43:48;;;;;;;2.90;2.60;;;;;;;6.39;nan;-13216.09;4992773;28;20271;-64
2023/12/21 07:46:14;;;;;;;1.87;1.77;;;;;;;6.37;nan;-12263.19;4993057;28;20696;-63
2023/12/21 07:48:39;;;;;;;1.93;1.83;;;;;;;6.55;nan;-12582.50;4993019;28;20161;-64
2023/12/21 07:51:08;;;;;;;2.63;1.80;;;;;;;6.58;nan;-11629.63;4992823;28;20176;-64
2023/12/21 07:53:34;;;;;;;2.50;2.00;;;;;;;6.72;nan;-11630.72;4992180;28;20161;-65
2023/12/21 07:55:59;;;;;;;1.93;1.80;;;;;;;6.75;nan;-9723.31;4992170;28;20180;-63
2023/12/21 07:58:25;;;;;;;2.40;2.20;;;;;;;6.72;nan;-10677.09;4992873;28;20172;-64
2023/12/21 08:00:50;;;;;;;1.77;1.67;;;;;;;6.78;nan;-10359.50;4992433;28;20173;-63
2023/12/21 08:03:15;;;;;;;1.63;1.50;;;;;;;6.75;nan;-9405.28;4992375;28;20164;-63
2023/12/21 08:05:41;;;;;;;1.87;1.77;;;;;;;6.83;nan;-11313.69;4992450;28;20684;-63
2023/12/21 08:08:06;;;;;;;3.40;1.87;;;;;;;7.07;nan;-9088.41;4992380;28;20173;-64
2023/12/21 08:10:32;;;;;;;1.97;1.77;;;;;;;7.01;nan;-7178.22;4992341;28;20169;-63
2023/12/21 08:12:58;;;;;;;1.37;1.33;;;;;;;7.24;nan;-7815.38;4992768;28;20168;-65
2023/12/21 08:15:26;;;;;;;2.77;2.17;;;;;;;7.31;nan;-4947.63;4992363;28;20176;-61
2023/12/21 08:17:55;;;;;;;2.97;2.13;;;;;;;7.45;nan;-3990.44;4991812;28;20659;-64
2023/12/21 08:20:22;;;;;;;1.87;1.77;;;;;;;7.24;nan;-3991.41;4992377;28;20785;-63
2023/12/21 08:22:47;;;;;;;1.70;1.60;;;;;;;7.37;nan;-3352.91;4992410;28;20173;-64
2023/12/21 08:25:13;;;;;;;1.57;1.47;;;;;;;7.65;nan;-3670.47;4991910;28;20288;-64
2023/12/21 08:27:41;;;;;;;1.53;1.43;;;;;;;7.83;nan;-2073.25;4992322;28;20167;-65
2023/12/21 08:30:07;;;;;;;2.60;1.87;;;;;;;7.96;nan;-794.28;4991799;28;20157;-64
2023/12/21 08:32:33;;;;;;;1.90;1.70;;;;;;;7.97;nan;-474.66;4991757;28;20184;-64
2023/12/21 08:34:59;;;;;;;2.23;2.03;;;;;;;7.97;nan;1443.31;4992350;28;20176;-64
2023/12/21 08:37:25;;;;;;;1.53;1.43;;;;;;;7.79;nan;4959.06;4991794;28;20211;-64
2023/12/21 08:39:50;;;;;;;1.80;1.70;;;;;;;7.85;nan;4320.22;4991395;28;20296;-64
2023/12/21 08:42:16;;;;;;;2.10;1.80;;;;;;;8.02;nan;5603.75;4991792;28;20632;-64
2023/12/21 08:44:43;;;;;;;1.97;1.87;;;;;;;8.18;nan;8490.75;4992265;28;20192;-62
2023/12/21 08:47:08;;;;;;;1.67;1.57;;;;;;;8.28;nan;10417.50;4985602;28;20656;-66
2023/12/21 08:49:34;;;;;;;1.80;1.63;;;;;;;8.11;nan;8809.66;4992147;28;20267;-63
2023/12/21 08:51:59;;;;;;;1.90;1.80;;;;;;;8.23;nan;9133.38;4991889;28;20343;-65
2023/12/21 08:54:25;;;;;;;1.83;1.73;;;;;;;8.43;nan;11384.53;4991976;28;20200;-66
2023/12/21 08:56:50;;;;;;;1.50;1.40;;;;;;;8.60;nan;12352.81;4992084;28;20196;-64
2023/12/21 08:59:16;;;;;;;1.63;1.52;;;;;;;8.51;nan;17491.56;4991709;28;20173;-65
2023/12/21 09:01:43;;;;;;;1.98;1.73;;;;;;;8.56;nan;16529.03;4991760;28;20173;-64
2023/12/21 09:04:08;;;;;;;1.70;1.60;;;;;;;8.48;nan;21351.84;4991968;28;20177;-64
2023/12/21 09:06:34;;;;;;;3.05;1.77;;;;;;;8.69;nan;21683.72;4992030;28;20210;-64
2023/12/21 09:08:59;;;;;;;1.20;1.17;;;;;;;8.73;nan;22652.16;4991707;28;20611;-63
2023/12/21 09:11:28;;;;;;;2.30;2.10;;;;;;;8.77;nan;20077.16;4991959;28;20180;-64
2023/12/21 09:13:58;;;;;;;3.33;1.75;;;;;;;8.65;nan;19749.69;4991992;28;20180;-65
2023/12/21 09:16:23;;;;;;;2.33;2.22;;;;;;;8.64;nan;22003.47;4992481;28;20176;-63
2023/12/21 09:18:49;;;;;;;2.35;2.15;;;;;;;8.88;nan;21692.69;4991871;28;20231;-64
2023/12/21 09:21:14;;;;;;;2.15;1.95;;;;;;;8.98;nan;20086.06;4991516;28;20564;-62
2023/12/21 09:23:41;;;;;;;2.58;1.80;;;;;;;9.04;nan;24279.34;4991902;28;20169;-64
2023/12/21 09:26:10;;;;;;;1.80;1.67;;;;;;;9.03;nan;23311.38;4992074;28;20666;-64
2023/12/21 09:28:37;;;;;;;1.30;1.25;;;;;;;9.19;nan;24609.72;4992053;28;20169;-65
2023/12/21 09:31:03;;;;;;;1.92;1.83;;;;;;;9.08;nan;27831.19;4995950;28;20311;-65
2023/12/21 09:33:33;;;;;;;2.00;1.85;;;;;;;9.27;nan;28811.53;4995604;28;20195;-63
2023/12/21 09:35:59;;;;;;;1.67;1.58;;;;;;;9.46;nan;31085.34;4995670;28;20200;-64
2023/12/21 09:38:25;;;;;;;1.50;1.40;;;;;;;9.51;nan;30765.34;4996228;28;20223;-64
2023/12/21 09:40:50;;;;;;;2.25;1.77;;;;;;;9.39;nan;34964.06;4995932;28;20180;-63
2023/12/21 09:43:21;;;;;;;1.80;1.70;;;;;;;9.52;nan;34973.09;4995278;28;20271;-62
2023/12/21 09:45:51;;;;;;;1.60;1.50;;;;;;;9.81;nan;38233.84;4995455;28;20193;-62
2023/12/21 09:48:18;;;;;;;1.35;1.25;;;;;;;9.54;nan;43295.81;4995350;28;20176;-65
2023/12/21 09:50:45;;;;;;;2.03;1.92;;;;;;;9.87;nan;45888.97;4995770;28;20184;-63
2023/12/21 09:53:15;;;;;;;1.48;1.38;;;;;;;9.86;nan;47732.72;4995529;28;20645;-63
2023/12/21 09:55:44;;;;;;;2.15;1.88;;;;;;;9.84;nan;45945.19;4995527;28;20177;-65
2023/12/21 09:58:13;;;;;;;1.63;1.52;;;;;;;10.20;nan;46296.50;4995226;28;20195;-64
2023/12/21 10:00:39;;;;;;;1.63;1.52;;;;;;;10.16;nan;48705.31;5010380;28;20752;-62
2023/12/21 10:03:05;;;;;;;1.70;1.60;;;;;;;10.05;nan;55485.66;4993936;28;20180;-63
2023/12/21 10:05:32;;;;;;;1.35;1.25;;;;;;;10.16;nan;55471.09;4995253;28;20232;-64
2023/12/21 10:07:58;;;;;;;1.85;1.70;;;;;;;10.35;nan;54575.38;4994584;28;20173;-62
2023/12/21 10:10:24;;;;;;;1.20;1.20;;;;;;;10.35;nan;54909.69;4995318;28;20176;-64
2023/12/21 10:12:49;;;;;;;1.80;1.52;;;;;;;10.32;nan;56637.28;4995096;28;20180;-63
2023/12/21 10:15:17;;;;;;;1.35;1.25;;;;;;;10.47;nan;56805.63;4995414;28;20227;-63
2023/12/21 10:17:42;;;;;;;1.17;1.15;;;;;;;10.40;nan;57489.88;4994988;28;20758;-65
2023/12/21 10:20:11;;;;;;;1.67;1.58;;;;;;;10.83;nan;57680.78;4995373;28;20363;-63
2023/12/21 10:22:42;;;;;;;1.70;1.60;;;;;;;10.41;nan;58278.59;4995083;28;20188;-62
2023/12/21 10:25:09;;;;;;;1.55;1.45;;;;;;;10.79;nan;58000.13;4995194;28;20296;-62
2023/12/21 10:27:35;;;;;;;1.50;1.40;;;;;;;10.68;nan;57625.91;4994958;28;20256;-63
2023/12/21 10:30:01;;;;;;;1.50;1.40;;;;;;;10.75;nan;58044.31;4994480;28;20200;-65
2023/12/21 10:32:26;;;;;;;1.38;1.27;;;;;;;10.85;nan;59186.72;4994713;28;20173;-66
2023/12/21 10:34:58;;;;;;;2.28;2.08;;;;;;;10.74;nan;59248.69;4994608;28;20188;-64
2023/12/21 10:37:24;;;;;;;1.70;1.60;;;;;;;10.94;nan;59354.94;4988090;28;20573;-64
2023/12/21 10:39:49;;;;;;;1.35;1.30;;;;;;;11.05;nan;59844.25;4989778;28;20197;-67
2023/12/21 10:42:15;;;;;;;1.35;1.20;;;;;;;10.92;nan;59817.06;4994188;28;20595;-63
2023/12/21 10:44:48;;;;;;;1.95;1.48;;;;;;;10.75;nan;59990.31;4988046;28;20649;-63
2023/12/21 10:47:16;;;;;;;1.42;1.33;;;;;;;11.07;nan;60040.66;4994559;28;20176;-65
2023/12/21 10:49:43;;;;;;;0.98;0.98;;;;;;;11.09;nan;60142.53;4988120;28;20191;-66
2023/12/21 10:52:10;;;;;;;1.15;1.15;;;;;;;10.98;nan;60322.47;4994282;28;20267;-62
2023/12/21 10:54:37;;;;;;;1.92;1.77;;;;;;;11.07;nan;60257.84;4408599;28;20962;-64
2023/12/21 10:57:07;;;;;;;1.67;1.58;;;;;;;10.93;nan;60244.78;4288648;28;21327;-64
2023/12/21 10:59:37;;;;;;;1.52;1.42;;;;;;;11.19;nan;60337.13;4265745;28;21681;-68
2023/12/21 11:02:03;;;;;;;2.00;1.80;;;;;;;11.10;nan;60169.19;4322923;28;20513;-63
2023/12/21 11:04:29;;;;;;;1.77;1.67;;;;;;;11.24;nan;60215.47;4881806;28;20192;-64
2023/12/21 11:06:55;;;;;;;2.88;1.88;;;;;;;11.45;nan;60356.50;4994040;28;20208;-63
2023/12/21 11:09:25;;;;;;;1.58;1.25;;;;;;;11.39;nan;60211.72;4993832;28;20710;-63
2023/12/21 11:11:51;;;;;;;1.20;1.17;;;;;;;11.56;nan;60296.06;4992906;28;20191;-63
2023/12/21 11:14:17;;;;;;;1.02;1.02;;;;;;;11.41;nan;60412.84;4993977;28;20181;-64
2023/12/21 11:16:50;;;;;;;1.30;1.20;;;;;;;11.57;nan;60405.16;4994122;28;20648;-62
2023/12/21 11:19:22;;;;;;;1.33;1.25;;;;;;;11.30;nan;60370.41;4993808;28;20227;-63
2023/12/21 11:21:48;;;;;;;2.47;1.48;;;;;;;11.57;nan;60427.59;4993833;28;20538;-63
2023/12/21 11:24:21;;;;;;;1.10;1.10;;;;;;;11.52;nan;60550.44;4993387;28;20235;-65
2023/12/21 11:26:48;;;;;;;1.45;1.35;;;;;;;11.45;nan;60639.78;4993752;28;20223;-64
2023/12/21 11:29:13;;;;;;;1.35;1.27;;;;;;;11.39;nan;60587.03;4993394;28;20223;-62
2023/12/21 11:31:41;;;;;;;2.10;1.40;;;;;;;11.50;nan;60679.19;4993481;28;20275;-62
2023/12/21 11:34:14;;;;;;;1.83;1.73;;;;;;;11.39;nan;60648.94;4993796;28;20176;-66
2023/12/21 11:36:40;;;;;;;1.67;1.25;;;;;;;11.45;nan;60665.91;4993764;28;20612;-62
2023/12/21 11:39:12;;;;;;;1.50;1.15;;;;;;;11.50;nan;60651.06;4993470;28;20173;-65
2023/12/21 11:41:55;;;;;;;0.98;0.98;;;;;;;11.56;nan;60677.69;4994073;28;20180;-62
2023/12/21 11:44:21;;;;;;;1.10;1.10;;;;;;;11.34;nan;60737.94;4992931;28;20228;-65
2023/12/21 11:46:46;;;;;;;1.35;1.25;;;;;;;11.58;nan;60761.22;4993010;28;20668;-62